EGGP - Liverpool Airport
Distance from station: E 5mi, 14km
Updated: 12/16/2017 4:50am
Mostly Cloudy
Mostly Cloudy
 Wind from WNW
Wind: WNW 10 mph , 17 km/h
Temperature: 45°F , 7°C
Wind Chill: 40°F , 4°C
Dew Point: 41°F , 5°C
Humidity: 87%
Barometer: 30.03 inHg , 1017 hPa
Clouds: Mostly Cloudy
Visibility: 6 miles , 10 km
Cloud details: Few Clouds 100 ft
Partly Cloudy 1000 ft
Mostly Cloudy 1600 ft
2017/12/16 12:50 EGGP 161250Z 30009KT 9999 FEW001 SCT010 BKN016 07/05 Q1017